createdAt,value
2023-01-29T00:03:41.995Z,27.00
2023-01-29T00:08:47.233Z,26.50
2023-01-29T00:13:51.836Z,25.00
2023-01-29T00:18:55.929Z,25.80
2023-01-29T00:24:01.000Z,25.30
2023-01-29T00:29:06.025Z,25.10
2023-01-29T00:34:09.853Z,26.60
2023-01-29T00:39:14.710Z,25.70
2023-01-29T00:44:37.977Z,25.60
2023-01-29T00:49:42.003Z,25.20
2023-01-29T00:54:45.936Z,23.80
2023-01-29T00:59:50.164Z,22.50
2023-01-29T01:04:54.641Z,22.40
2023-01-29T01:10:17.732Z,21.50
2023-01-29T01:15:24.574Z,19.10
2023-01-29T01:20:31.332Z,21.20
2023-01-29T01:25:35.213Z,20.50
2023-01-29T01:30:39.909Z,19.80
2023-01-29T01:35:44.916Z,18.50
2023-01-29T01:40:48.931Z,19.00
2023-01-29T01:45:54.306Z,18.70
2023-01-29T01:51:04.806Z,18.30
2023-01-29T01:56:16.394Z,17.80
2023-01-29T02:01:29.218Z,18.10
2023-01-29T02:06:52.615Z,16.10
2023-01-29T02:11:56.738Z,17.00
2023-01-29T02:17:01.763Z,16.20
2023-01-29T02:22:28.742Z,16.30
2023-01-29T02:27:56.604Z,15.50
2023-01-29T02:33:12.411Z,15.60
2023-01-29T02:38:37.641Z,15.10
2023-01-29T02:43:48.838Z,14.50
2023-01-29T02:49:31.638Z,14.70
2023-01-29T02:54:42.480Z,14.50
2023-01-29T03:00:30.462Z,14.00
2023-01-29T03:05:45.214Z,13.50
2023-01-29T03:10:57.291Z,12.70
2023-01-29T03:16:28.718Z,12.40
2023-01-29T03:22:02.420Z,11.60
2023-01-29T03:27:29.501Z,12.70
2023-01-29T03:32:36.539Z,12.60
2023-01-29T03:37:48.812Z,11.90
2023-01-29T03:43:10.647Z,12.00
2023-01-29T03:48:29.736Z,11.70
2023-01-29T03:53:56.532Z,11.60
2023-01-29T03:59:15.751Z,11.50
2023-01-29T04:04:54.332Z,10.40
2023-01-29T04:10:03.527Z,10.80
2023-01-29T04:15:15.801Z,10.20
2023-01-29T04:20:21.714Z,10.60
2023-01-29T04:25:31.231Z,10.60
2023-01-29T04:30:52.202Z,10.30
2023-01-29T04:36:25.713Z,9.60
2023-01-29T04:41:52.353Z,9.80
2023-01-29T04:47:15.042Z,10.00
2023-01-29T04:52:33.163Z,9.00
2023-01-29T04:57:43.739Z,9.20
2023-01-29T05:02:49.197Z,8.70
2023-01-29T05:07:54.469Z,8.50
2023-01-29T05:13:05.862Z,8.40
2023-01-29T05:23:20.048Z,8.10
2023-01-29T05:28:24.494Z,7.90
2023-01-29T05:33:32.227Z,7.50
2023-01-29T05:38:36.169Z,7.60
2023-01-29T05:43:41.524Z,7.70
2023-01-29T05:48:45.561Z,7.20
2023-01-29T05:53:49.792Z,7.20
2023-01-29T05:58:54.343Z,7.40
2023-01-29T06:03:58.261Z,7.20
2023-01-29T06:09:02.194Z,7.00
2023-01-29T06:14:06.329Z,7.20
2023-01-29T06:19:10.463Z,6.70
2023-01-29T06:24:14.800Z,6.90
2023-01-29T06:29:18.856Z,6.80
2023-01-29T06:34:22.989Z,6.50
2023-01-29T06:39:27.218Z,6.60
2023-01-29T06:44:31.348Z,6.50
2023-01-29T06:49:35.382Z,6.60
2023-01-29T06:54:39.928Z,5.80
2023-01-29T06:59:43.953Z,6.50
2023-01-29T07:04:47.984Z,6.50
2023-01-29T07:09:51.915Z,6.20
2023-01-29T07:14:56.052Z,6.00
2023-01-29T07:20:00.189Z,5.60
2023-01-29T07:25:04.842Z,5.20
2023-01-29T07:30:09.691Z,5.80
2023-01-29T07:35:13.605Z,5.00
2023-01-29T07:40:18.130Z,5.20
2023-01-29T07:45:22.305Z,5.00
2023-01-29T07:50:27.832Z,5.50
2023-01-29T07:55:31.992Z,5.30
2023-01-29T08:00:36.023Z,5.10
2023-01-29T08:05:40.062Z,5.40
2023-01-29T08:10:43.988Z,5.20
2023-01-29T08:15:48.025Z,5.40
2023-01-29T08:20:52.876Z,4.70
2023-01-29T08:25:57.302Z,5.40
2023-01-29T08:31:02.393Z,5.10
2023-01-29T08:36:07.663Z,5.70
2023-01-29T08:41:12.399Z,5.20
2023-01-29T08:46:16.687Z,5.20
2023-01-29T08:51:21.675Z,4.80
2023-01-29T08:56:25.497Z,4.80
2023-01-29T09:01:29.489Z,4.70
2023-01-29T09:06:34.580Z,5.20
2023-01-29T09:11:39.033Z,4.80
2023-01-29T09:16:43.515Z,4.80
2023-01-29T09:21:47.598Z,4.50
2023-01-29T09:26:51.535Z,4.90
2023-01-29T09:31:55.546Z,5.30
2023-01-29T09:36:59.538Z,4.90
2023-01-29T09:42:26.339Z,4.70
2023-01-29T09:47:33.808Z,4.20
2023-01-29T09:52:47.644Z,3.80
2023-01-29T09:58:08.038Z,4.00
2023-01-29T10:03:32.009Z,4.10
2023-01-29T10:09:02.343Z,4.00
2023-01-29T10:14:23.052Z,4.30
2023-01-29T10:19:45.186Z,3.80
2023-01-29T10:24:58.233Z,4.00
2023-01-29T10:30:07.325Z,3.80
2023-01-29T10:35:17.592Z,3.70
2023-01-29T10:40:27.721Z,3.90
2023-01-29T10:45:58.385Z,3.50
2023-01-29T10:51:22.983Z,3.80
2023-01-29T10:56:44.713Z,3.60
2023-01-29T11:01:49.920Z,3.90
2023-01-29T11:06:54.628Z,3.70
2023-01-29T11:12:21.639Z,4.20
2023-01-29T11:17:27.029Z,3.80
2023-01-29T11:22:31.706Z,3.80
2023-01-29T11:27:47.079Z,4.00
2023-01-29T11:32:59.701Z,4.00
2023-01-29T11:38:17.352Z,3.80
2023-01-29T11:43:32.551Z,3.70
2023-01-29T11:48:52.114Z,4.40
2023-01-29T11:54:01.534Z,3.90
2023-01-29T11:59:06.736Z,3.90
2023-01-29T12:04:22.151Z,3.60
2023-01-29T12:09:28.765Z,3.60
2023-01-29T12:14:35.084Z,3.80
2023-01-29T12:19:48.347Z,4.10
2023-01-29T12:25:04.864Z,3.20
2023-01-29T12:30:35.538Z,4.30
2023-01-29T12:35:49.378Z,4.00
2023-01-29T12:41:01.693Z,3.60
2023-01-29T12:51:20.945Z,4.10
2023-01-29T12:56:37.334Z,3.80
2023-01-29T13:01:58.845Z,4.20
2023-01-29T13:07:20.175Z,3.50
2023-01-29T13:12:26.019Z,3.60
2023-01-29T13:17:52.400Z,3.40
2023-01-29T13:23:01.564Z,3.90
2023-01-29T13:28:06.276Z,3.40
2023-01-29T13:33:24.148Z,3.90
2023-01-29T13:38:33.785Z,3.30
2023-01-29T13:43:41.914Z,3.80
2023-01-29T13:48:48.922Z,3.10
2023-01-29T13:54:17.353Z,3.50
2023-01-29T13:59:24.621Z,4.40
2023-01-29T14:04:32.129Z,4.20
2023-01-29T14:09:40.005Z,4.30
2023-01-29T14:14:51.771Z,4.40
2023-01-29T14:20:18.110Z,4.10
2023-01-29T14:25:29.161Z,4.30
2023-01-29T14:30:35.857Z,4.00
2023-01-29T14:35:49.857Z,4.00
2023-01-29T14:41:05.641Z,5.10
2023-01-29T14:46:35.179Z,5.40
2023-01-29T14:51:46.529Z,6.20
2023-01-29T14:57:00.239Z,5.00
2023-01-29T15:02:26.898Z,5.90
2023-01-29T15:07:37.520Z,5.40
2023-01-29T15:12:57.010Z,5.20
2023-01-29T15:18:10.181Z,5.70
2023-01-29T15:23:32.804Z,6.40
2023-01-29T15:28:38.618Z,5.90
2023-01-29T15:33:47.433Z,6.30
2023-01-29T15:39:10.204Z,6.20
2023-01-29T15:44:17.334Z,6.30
2023-01-29T15:49:36.539Z,6.50
2023-01-29T15:54:42.337Z,5.70
2023-01-29T15:59:52.250Z,6.30
2023-01-29T16:04:57.929Z,5.40
2023-01-29T16:10:03.582Z,6.10
2023-01-29T16:15:20.891Z,5.90
2023-01-29T16:20:47.064Z,6.20
2023-01-29T16:25:54.568Z,5.50
2023-01-29T16:31:04.569Z,5.40
2023-01-29T16:36:26.218Z,4.90
2023-01-29T16:41:40.910Z,5.60
2023-01-29T16:46:53.930Z,5.60
2023-01-29T16:52:28.148Z,5.40
2023-01-29T16:57:34.954Z,5.00
2023-01-29T17:02:45.874Z,5.30
2023-01-29T17:07:53.263Z,4.70
2023-01-29T17:13:12.124Z,5.60
2023-01-29T17:18:24.768Z,4.70
2023-01-29T17:30:01.508Z,5.20
2023-01-29T17:40:56.977Z,5.10
2023-01-29T17:46:07.467Z,5.50
2023-01-29T17:51:16.200Z,4.80
2023-01-29T17:56:34.521Z,4.80
2023-01-29T18:01:43.192Z,4.40
2023-01-29T18:06:53.014Z,4.60
2023-01-29T18:12:00.923Z,4.60
2023-01-29T18:17:06.893Z,4.70
2023-01-29T18:22:14.735Z,4.70
2023-01-29T18:27:20.649Z,4.90
2023-01-29T18:32:26.764Z,5.40
2023-01-29T18:37:37.751Z,5.90
2023-01-29T18:42:44.285Z,7.30
2023-01-29T18:47:50.804Z,6.40
2023-01-29T18:52:56.804Z,5.90
2023-01-29T18:58:27.116Z,6.10
2023-01-29T19:03:29.113Z,5.60
2023-01-29T19:08:35.308Z,5.10
2023-01-29T19:13:43.467Z,5.20
2023-01-29T19:18:50.866Z,4.50
2023-01-29T19:23:58.678Z,4.70
2023-01-29T19:29:05.187Z,5.20
2023-01-29T19:34:10.804Z,5.30
2023-01-29T19:39:17.381Z,4.70
2023-01-29T19:44:22.890Z,5.00
2023-01-29T19:49:28.446Z,4.50
2023-01-29T19:54:35.188Z,4.30
2023-01-29T19:59:41.524Z,6.30
2023-01-29T20:04:47.223Z,4.60
2023-01-29T20:09:53.171Z,4.50
2023-01-29T20:14:59.357Z,5.40
2023-01-29T20:20:09.546Z,6.10
2023-01-29T20:25:17.164Z,4.80
2023-01-29T20:30:22.959Z,5.20
2023-01-29T20:35:33.562Z,4.50
2023-01-29T20:40:41.265Z,4.80
2023-01-29T20:45:49.581Z,5.50
2023-01-29T20:50:57.079Z,5.20
2023-01-29T20:56:04.576Z,5.00
2023-01-29T21:01:16.753Z,5.30
2023-01-29T21:06:23.544Z,5.40
2023-01-29T21:11:30.785Z,5.60
2023-01-29T21:16:36.550Z,5.70
2023-01-29T21:21:45.227Z,5.40
2023-01-29T21:26:50.557Z,6.00
2023-01-29T21:31:56.569Z,5.40
2023-01-29T21:37:01.895Z,4.90
2023-01-29T21:42:25.565Z,5.60
2023-01-29T21:47:31.034Z,4.70
2023-01-29T21:52:39.717Z,4.90
2023-01-29T21:57:44.943Z,5.30
2023-01-29T22:02:52.487Z,4.90
2023-01-29T22:07:59.376Z,4.80
2023-01-29T22:13:05.045Z,5.30
2023-01-29T22:18:09.251Z,6.50
2023-01-29T22:23:13.172Z,4.90
2023-01-29T22:28:19.223Z,5.90
2023-01-29T22:33:23.907Z,5.20
2023-01-29T22:38:27.964Z,5.10
2023-01-29T22:43:32.189Z,5.20
2023-01-29T22:48:36.440Z,6.10
2023-01-29T22:53:49.350Z,5.40
2023-01-29T22:58:56.758Z,5.10
2023-01-29T23:04:02.262Z,5.10
2023-01-29T23:09:06.569Z,4.80
2023-01-29T23:14:10.499Z,5.90
2023-01-29T23:19:14.423Z,4.60
2023-01-29T23:24:18.563Z,4.90
2023-01-29T23:29:22.703Z,5.20
2023-01-29T23:34:27.281Z,5.70
2023-01-29T23:39:31.489Z,5.30
2023-01-29T23:44:37.985Z,4.50
2023-01-29T23:49:42.499Z,4.60
2023-01-29T23:54:46.561Z,4.30
2023-01-29T23:59:50.459Z,4.90
